Time;durP1;ratioP1;P1;durP2;ratioP2;P2;SDS_P1;SDS_P2;PMS_P1;PMS_P2;Temp;Humidity;BMP_temperature;BMP_pressure;BME280_temperature;BME280_humidity;BME280_pressure;Samples;Min_cycle;Max_cycle;Signal;HPM_P1;HPM_P2
2022/12/03 00:00:45;;;;;;;23.33;16.00;;;4.00;99.90;;;;;;4992009;28;20298;-67
2022/12/03 00:03:10;;;;;;;21.43;13.47;;;3.90;99.90;;;;;;4989115;28;20241;-67
2022/12/03 00:05:36;;;;;;;23.70;15.90;;;4.00;99.90;;;;;;4988346;28;20237;-67
2022/12/03 00:08:02;;;;;;;27.00;16.70;;;3.90;99.90;;;;;;4988261;28;20246;-67
2022/12/03 00:10:28;;;;;;;22.90;15.37;;;3.90;99.90;;;;;;4994937;28;20236;-67
2022/12/03 00:12:53;;;;;;;26.23;18.33;;;4.00;99.90;;;;;;4992329;28;20458;-67
2022/12/03 00:15:19;;;;;;;21.70;15.23;;;4.00;99.90;;;;;;4989421;28;20218;-67
2022/12/03 00:17:44;;;;;;;23.13;15.50;;;4.00;99.90;;;;;;4994440;28;20563;-67
2022/12/03 00:20:19;;;;;;;21.40;14.97;;;3.90;99.90;;;;;;4990527;28;20208;-67
2022/12/03 00:22:45;;;;;;;25.00;18.13;;;3.90;99.90;;;;;;4991054;28;20183;-67
2022/12/03 00:25:11;;;;;;;23.60;18.47;;;3.90;99.90;;;;;;4988308;28;20473;-67
2022/12/03 00:27:36;;;;;;;22.03;15.63;;;4.00;99.90;;;;;;4993634;28;20180;-67
2022/12/03 00:30:03;;;;;;;25.53;16.60;;;4.00;99.90;;;;;;4989144;28;20199;-67
2022/12/03 00:32:29;;;;;;;23.43;16.50;;;3.90;99.90;;;;;;4985723;28;20188;-67
2022/12/03 00:34:54;;;;;;;24.63;16.43;;;3.80;99.90;;;;;;4981899;28;20463;-67
2022/12/03 00:37:20;;;;;;;22.00;15.87;;;3.90;99.90;;;;;;4990728;28;20179;-67
2022/12/03 00:39:51;;;;;;;23.67;15.50;;;3.90;99.90;;;;;;4987779;28;20199;-68
2022/12/03 00:42:17;;;;;;;19.97;15.20;;;4.00;99.90;;;;;;4987887;28;20267;-67
2022/12/03 00:44:43;;;;;;;24.07;15.53;;;3.90;99.90;;;;;;4986470;28;20534;-67
2022/12/03 00:47:08;;;;;;;20.57;14.80;;;4.00;99.90;;;;;;4987793;28;20642;-67
2022/12/03 00:49:34;;;;;;;19.33;14.37;;;4.00;99.90;;;;;;4987523;28;20230;-67
2022/12/03 00:52:00;;;;;;;21.90;15.50;;;4.00;99.90;;;;;;4982900;28;20625;-67
2022/12/03 00:54:26;;;;;;;21.17;14.67;;;4.00;99.90;;;;;;4987447;28;20465;-67
2022/12/03 00:56:51;;;;;;;23.53;17.43;;;4.00;99.90;;;;;;4987052;28;20679;-67
2022/12/03 00:59:17;;;;;;;23.27;16.73;;;4.10;99.90;;;;;;4984086;28;20193;-67
2022/12/03 01:01:42;;;;;;;26.03;17.20;;;4.00;99.90;;;;;;4984211;28;20261;-67
2022/12/03 01:04:08;;;;;;;29.40;17.63;;;4.00;99.90;;;;;;4984947;28;20672;-68
2022/12/03 01:06:33;;;;;;;26.13;17.97;;;3.90;99.90;;;;;;4983312;28;20179;-67
2022/12/03 01:08:59;;;;;;;25.53;16.90;;;3.90;99.90;;;;;;4986250;28;20180;-67
2022/12/03 01:11:37;;;;;;;28.80;17.77;;;3.90;99.90;;;;;;4986628;28;20535;-67
2022/12/03 01:14:08;;;;;;;23.33;16.23;;;3.80;99.90;;;;;;4989591;28;20693;-67
2022/12/03 01:16:34;;;;;;;24.80;17.00;;;3.80;99.90;;;;;;4994983;28;20438;-66
2022/12/03 01:19:00;;;;;;;25.07;15.60;;;3.80;99.90;;;;;;4995743;28;20890;-67
2022/12/03 01:21:25;;;;;;;27.03;17.10;;;3.70;99.90;;;;;;4993252;28;20466;-67
2022/12/03 01:23:51;;;;;;;25.40;17.53;;;3.80;99.90;;;;;;4985489;28;20661;-67
2022/12/03 01:26:16;;;;;;;23.87;15.60;;;3.70;99.90;;;;;;4993955;28;20215;-67
2022/12/03 01:28:42;;;;;;;24.13;15.80;;;3.60;99.90;;;;;;4983887;28;20217;-67
2022/12/03 01:34:00;;;;;;;22.70;16.63;;;3.70;99.90;;;;;;4974184;28;20218;-67
2022/12/03 01:36:26;;;;;;;25.13;16.93;;;3.70;99.90;;;;;;4991372;28;20438;-67
2022/12/03 01:38:52;;;;;;;22.77;15.70;;;3.70;99.90;;;;;;4993677;28;20194;-67
2022/12/03 01:41:19;;;;;;;21.90;14.47;;;3.80;99.90;;;;;;4991216;28;20218;-67
2022/12/03 01:43:45;;;;;;;23.47;16.80;;;3.90;99.90;;;;;;4990435;28;20186;-66
2022/12/03 01:46:19;;;;;;;21.90;15.57;;;3.90;99.90;;;;;;4992991;28;20832;-67
2022/12/03 01:48:46;;;;;;;22.17;16.20;;;3.90;99.90;;;;;;4989516;28;20528;-66
2022/12/03 01:51:13;;;;;;;25.90;16.47;;;3.80;99.90;;;;;;4990730;28;20440;-66
2022/12/03 01:53:38;;;;;;;24.37;16.03;;;3.90;99.90;;;;;;4989908;28;20521;-67
2022/12/03 01:56:04;;;;;;;25.80;17.23;;;3.80;99.90;;;;;;4989663;28;20535;-67
2022/12/03 01:58:30;;;;;;;22.33;15.93;;;3.90;99.90;;;;;;4990561;28;20391;-67
2022/12/03 02:00:57;;;;;;;22.90;14.93;;;4.00;99.90;;;;;;4988923;28;20273;-67
2022/12/03 02:03:24;;;;;;;24.27;15.50;;;4.00;99.90;;;;;;4984001;28;20668;-67
2022/12/03 02:05:51;;;;;;;30.93;17.97;;;4.00;99.90;;;;;;4984645;28;20598;-67
2022/12/03 02:08:27;;;;;;;25.37;17.27;;;3.90;99.90;;;;;;4989419;28;20823;-66
2022/12/03 02:10:53;;;;;;;22.73;15.70;;;3.90;99.90;;;;;;4984836;28;20810;-67
2022/12/03 02:13:19;;;;;;;27.73;17.13;;;3.90;99.90;;;;;;4989048;28;20443;-67
2022/12/03 02:15:45;;;;;;;25.77;17.00;;;4.00;99.90;;;;;;4985498;28;20242;-67
2022/12/03 02:18:10;;;;;;;22.73;17.13;;;4.00;99.90;;;;;;4989143;28;20425;-67
2022/12/03 02:20:43;;;;;;;26.70;17.80;;;3.90;99.90;;;;;;4993645;28;20199;-67
2022/12/03 02:23:30;;;;;;;28.97;16.77;;;3.90;99.90;;;;;;4997722;28;20197;-67
2022/12/03 02:25:56;;;;;;;29.80;18.03;;;4.00;99.90;;;;;;4989154;28;20427;-67
2022/12/03 02:28:21;;;;;;;27.23;17.90;;;4.00;99.90;;;;;;4999595;28;20862;-67
2022/12/03 02:30:47;;;;;;;25.23;16.97;;;4.00;99.90;;;;;;4989547;28;20270;-67
2022/12/03 02:33:13;;;;;;;26.60;16.93;;;4.00;99.90;;;;;;4988321;28;20189;-67
2022/12/03 02:35:38;;;;;;;25.17;18.20;;;4.00;99.90;;;;;;4989569;28;20208;-67
2022/12/03 02:38:15;;;;;;;29.83;18.80;;;4.00;99.90;;;;;;4991561;28;20219;-67
2022/12/03 02:40:42;;;;;;;25.13;16.77;;;3.90;99.90;;;;;;4992209;28;20735;-67
2022/12/03 02:43:08;;;;;;;22.20;16.37;;;4.00;99.90;;;;;;4985825;28;20885;-67
2022/12/03 02:45:43;;;;;;;26.90;17.47;;;4.00;99.90;;;;;;4987333;28;20824;-67
2022/12/03 02:48:10;;;;;;;26.87;17.87;;;4.00;99.90;;;;;;4991845;28;20441;-67
2022/12/03 02:50:42;;;;;;;23.77;16.40;;;4.00;99.90;;;;;;4992838;28;20442;-66
2022/12/03 02:53:13;;;;;;;28.13;18.00;;;4.10;99.90;;;;;;4986734;28;21055;-67
2022/12/03 02:55:40;;;;;;;27.30;18.43;;;4.00;99.90;;;;;;4985340;28;20458;-67
2022/12/03 02:58:06;;;;;;;22.40;16.67;;;4.00;99.90;;;;;;4984577;28;20755;-67
2022/12/03 03:00:32;;;;;;;24.97;16.10;;;4.00;99.90;;;;;;4991579;28;20553;-67
2022/12/03 03:02:58;;;;;;;24.10;17.43;;;4.00;99.90;;;;;;4990105;28;20191;-67
2022/12/03 03:05:24;;;;;;;26.60;17.97;;;4.00;99.90;;;;;;4991958;28;20540;-66
2022/12/03 03:07:50;;;;;;;30.20;19.63;;;4.10;99.90;;;;;;4991728;28;20434;-67
2022/12/03 03:10:20;;;;;;;24.87;18.00;;;4.10;99.90;;;;;;4987985;28;20215;-67
2022/12/03 03:12:46;;;;;;;24.80;16.87;;;4.00;99.90;;;;;;4981920;28;20777;-67
2022/12/03 03:15:12;;;;;;;27.17;18.07;;;4.00;99.90;;;;;;4990539;28;20533;-67
2022/12/03 03:17:38;;;;;;;22.40;15.37;;;4.10;99.90;;;;;;4991249;28;20206;-66
2022/12/03 03:20:05;;;;;;;22.70;16.90;;;4.10;99.90;;;;;;4984502;28;20966;-66
2022/12/03 03:22:33;;;;;;;22.40;15.50;;;4.20;99.90;;;;;;4992178;28;20785;-66
2022/12/03 03:24:59;;;;;;;22.63;17.10;;;4.20;99.90;;;;;;4991290;28;20455;-67
2022/12/03 03:27:26;;;;;;;21.87;16.37;;;4.10;99.90;;;;;;4991113;28;20497;-67
2022/12/03 03:29:51;;;;;;;23.57;15.80;;;4.20;99.90;;;;;;4991257;28;20183;-67
2022/12/03 03:32:17;;;;;;;21.60;16.20;;;4.20;99.90;;;;;;4988625;28;20435;-67
2022/12/03 03:34:42;;;;;;;26.00;16.33;;;4.20;99.90;;;;;;4988249;28;20191;-67
2022/12/03 03:37:08;;;;;;;23.17;16.20;;;4.20;99.90;;;;;;4991686;28;20179;-67
2022/12/03 03:39:34;;;;;;;26.53;18.00;;;4.20;99.90;;;;;;4991471;28;20242;-67
2022/12/03 03:42:00;;;;;;;21.67;16.20;;;4.10;99.90;;;;;;4991335;28;20575;-67
2022/12/03 03:44:27;;;;;;;22.53;15.83;;;4.10;99.90;;;;;;4987420;28;20285;-67
2022/12/03 03:46:53;;;;;;;25.40;15.67;;;4.10;99.90;;;;;;4983868;28;20259;-67
2022/12/03 03:49:18;;;;;;;20.23;14.50;;;4.20;99.90;;;;;;4987418;28;20437;-67
2022/12/03 03:51:45;;;;;;;21.30;13.93;;;4.20;99.90;;;;;;4998507;28;20936;-67
2022/12/03 03:54:11;;;;;;;26.23;15.43;;;4.20;99.90;;;;;;4996611;28;20760;-67
2022/12/03 03:56:37;;;;;;;24.33;16.47;;;4.30;99.90;;;;;;5006248;28;20437;-67
2022/12/03 03:59:02;;;;;;;24.83;15.47;;;4.30;99.90;;;;;;5002456;28;20437;-67
2022/12/03 04:01:28;;;;;;;23.90;17.03;;;4.20;99.90;;;;;;4998721;28;20199;-67
2022/12/03 04:03:54;;;;;;;23.73;15.13;;;4.20;99.90;;;;;;4997258;28;20248;-67
2022/12/03 04:06:20;;;;;;;25.80;16.23;;;4.20;99.90;;;;;;4993079;28;20435;-67
2022/12/03 04:08:45;;;;;;;25.43;16.73;;;4.20;99.90;;;;;;4993524;28;20429;-67
2022/12/03 04:13:55;;;;;;;24.47;15.90;;;4.20;99.90;;;;;;4995929;28;20226;-67
2022/12/03 04:16:20;;;;;;;24.93;16.20;;;4.20;99.90;;;;;;4996897;28;20434;-67
2022/12/03 04:18:46;;;;;;;25.17;17.67;;;4.20;99.90;;;;;;4998529;28;20684;-67
2022/12/03 04:24:04;;;;;;;25.60;16.80;;;4.20;99.90;;;;;;4956789;28;20346;-67
2022/12/03 04:29:14;;;;;;;25.67;17.30;;;4.10;99.90;;;;;;4991094;28;20483;-66
2022/12/03 04:37:22;;;;;;;29.50;18.47;;;4.00;99.90;;;;;;4954060;28;20509;-67
2022/12/03 04:39:48;;;;;;;32.03;18.93;;;4.00;99.90;;;;;;4991590;28;20442;-67
2022/12/03 04:42:14;;;;;;;26.60;17.50;;;4.00;99.90;;;;;;5005298;28;20207;-67
2022/12/03 04:44:39;;;;;;;24.60;17.77;;;4.20;99.90;;;;;;5004318;28;20200;-67
2022/12/03 04:47:11;;;;;;;28.80;18.30;;;4.20;99.90;;;;;;5005587;28;20249;-67
2022/12/03 04:49:42;;;;;;;30.20;17.20;;;4.20;99.90;;;;;;5009459;28;20297;-67
2022/12/03 04:52:09;;;;;;;25.53;16.40;;;4.10;99.90;;;;;;5002969;28;20808;-67
2022/12/03 04:54:36;;;;;;;26.10;16.90;;;4.10;99.90;;;;;;4998668;28;20457;-67
2022/12/03 04:57:02;;;;;;;23.60;16.40;;;4.20;99.90;;;;;;5001634;28;20445;-67
2022/12/03 04:59:28;;;;;;;21.67;16.00;;;4.20;99.90;;;;;;5000197;28;20483;-67
2022/12/03 05:01:53;;;;;;;27.53;15.97;;;4.10;99.90;;;;;;4991567;28;20498;-67
2022/12/03 05:04:19;;;;;;;24.70;16.53;;;4.20;99.90;;;;;;4994780;28;20207;-67
2022/12/03 05:06:44;;;;;;;33.23;17.30;;;4.20;99.90;;;;;;4993928;28;20188;-67
2022/12/03 05:09:10;;;;;;;22.43;16.00;;;4.20;99.90;;;;;;4988045;28;20180;-67
2022/12/03 05:11:36;;;;;;;29.17;16.60;;;4.20;99.90;;;;;;4986706;28;20541;-67
2022/12/03 05:14:02;;;;;;;29.67;18.40;;;4.20;99.90;;;;;;4992991;28;20466;-67
2022/12/03 05:16:28;;;;;;;24.03;17.03;;;4.20;99.90;;;;;;4991040;28;20191;-67
2022/12/03 05:18:53;;;;;;;24.80;16.20;;;4.20;99.90;;;;;;4993839;28;20183;-66
2022/12/03 05:21:19;;;;;;;23.90;14.87;;;4.20;99.90;;;;;;4986931;28;20462;-67
2022/12/03 05:23:45;;;;;;;26.13;17.67;;;4.20;99.90;;;;;;4994360;28;20194;-67
2022/12/03 05:26:10;;;;;;;23.27;16.83;;;4.20;99.90;;;;;;4988824;28;20188;-67
2022/12/03 05:28:36;;;;;;;27.10;16.93;;;4.20;99.90;;;;;;4991400;28;20254;-67
2022/12/03 05:31:01;;;;;;;29.90;17.83;;;4.20;99.90;;;;;;4994322;28;20183;-67
2022/12/03 05:33:27;;;;;;;23.07;16.63;;;4.20;99.90;;;;;;4997898;28;20265;-67
2022/12/03 05:35:53;;;;;;;25.00;17.60;;;4.30;99.90;;;;;;5001231;28;20549;-67
2022/12/03 05:38:18;;;;;;;27.47;17.63;;;4.30;99.90;;;;;;4989949;28;20176;-66
2022/12/03 05:40:44;;;;;;;26.60;17.07;;;4.30;99.90;;;;;;4990105;28;20223;-67
2022/12/03 05:43:09;;;;;;;24.10;16.13;;;4.20;99.90;;;;;;4992503;28;21431;-67
2022/12/03 05:45:37;;;;;;;21.27;15.13;;;4.30;99.90;;;;;;4993806;28;20203;-67
2022/12/03 05:48:05;;;;;;;25.20;16.60;;;4.10;99.90;;;;;;4992190;28;20184;-67
2022/12/03 05:50:33;;;;;;;23.03;15.57;;;4.00;99.90;;;;;;5005624;28;20429;-67
2022/12/03 05:52:59;;;;;;;22.43;15.77;;;4.10;99.90;;;;;;4995145;28;20497;-66
2022/12/03 05:55:25;;;;;;;23.47;15.73;;;4.10;99.90;;;;;;4995863;28;20463;-66
2022/12/03 05:57:51;;;;;;;23.53;16.13;;;4.10;99.90;;;;;;4988569;28;20188;-67
2022/12/03 06:00:23;;;;;;;23.30;16.30;;;4.10;99.90;;;;;;4998076;28;20460;-67
2022/12/03 06:02:49;;;;;;;25.37;16.70;;;4.10;99.90;;;;;;5000476;28;20233;-67
2022/12/03 06:05:15;;;;;;;26.13;18.37;;;4.20;99.90;;;;;;4991185;28;21767;-67
2022/12/03 06:07:41;;;;;;;27.07;18.60;;;4.20;99.90;;;;;;4999927;28;20205;-67
2022/12/03 06:10:09;;;;;;;20.93;15.30;;;4.20;99.90;;;;;;4997258;28;20516;-67
2022/12/03 06:12:35;;;;;;;24.53;18.33;;;4.20;99.90;;;;;;4999233;28;20439;-67
2022/12/03 06:15:01;;;;;;;28.57;18.13;;;4.20;99.90;;;;;;4994831;28;20848;-67
2022/12/03 06:17:27;;;;;;;25.00;16.63;;;4.10;99.90;;;;;;4987270;28;20186;-67
2022/12/03 06:19:52;;;;;;;31.03;17.93;;;4.10;99.90;;;;;;4981854;28;20500;-67
2022/12/03 06:22:18;;;;;;;26.43;17.53;;;4.00;99.90;;;;;;4991859;28;20242;-67
2022/12/03 06:24:44;;;;;;;26.73;17.40;;;4.10;99.90;;;;;;4987281;28;20247;-67
2022/12/03 06:27:10;;;;;;;24.00;18.37;;;4.20;99.90;;;;;;4992636;28;20439;-67
2022/12/03 06:29:36;;;;;;;23.03;16.40;;;4.10;99.90;;;;;;4990039;28;20472;-67
2022/12/03 06:32:03;;;;;;;24.80;17.43;;;4.10;99.90;;;;;;4980694;28;20528;-67
2022/12/03 06:34:29;;;;;;;25.80;16.20;;;4.20;99.90;;;;;;4979308;28;20203;-67
2022/12/03 06:36:54;;;;;;;24.10;17.00;;;4.20;99.90;;;;;;4991877;28;21006;-67
2022/12/03 06:39:20;;;;;;;24.20;16.23;;;4.20;99.90;;;;;;4990500;28;20184;-67
2022/12/03 06:41:46;;;;;;;26.63;17.30;;;4.20;99.90;;;;;;4992512;28;20269;-67
2022/12/03 06:44:11;;;;;;;25.23;16.37;;;4.20;99.90;;;;;;4983458;28;20241;-67
2022/12/03 06:46:37;;;;;;;21.13;15.63;;;4.30;99.90;;;;;;4990466;28;20646;-67
2022/12/03 06:49:03;;;;;;;25.03;17.07;;;4.30;99.90;;;;;;4989296;28;20172;-67
2022/12/03 06:51:28;;;;;;;20.90;15.70;;;4.20;99.90;;;;;;4987937;28;20650;-67
2022/12/03 06:53:54;;;;;;;25.30;16.60;;;4.30;99.90;;;;;;4986205;28;20250;-67
2022/12/03 06:56:19;;;;;;;29.93;19.67;;;4.30;99.90;;;;;;4991303;28;20179;-67
2022/12/03 06:58:45;;;;;;;26.20;17.47;;;4.30;99.90;;;;;;4990079;28;20190;-67
2022/12/03 07:01:10;;;;;;;23.70;15.60;;;4.30;99.90;;;;;;4991411;28;20298;-67
2022/12/03 07:03:36;;;;;;;22.73;17.07;;;4.20;99.90;;;;;;4998735;28;20207;-67
2022/12/03 07:06:02;;;;;;;24.90;16.93;;;4.20;99.90;;;;;;4989828;28;20265;-67
2022/12/03 07:08:27;;;;;;;25.73;18.83;;;4.30;99.90;;;;;;4990723;28;20180;-67
2022/12/03 07:10:53;;;;;;;25.70;18.17;;;4.20;99.90;;;;;;4991141;28;20184;-67
2022/12/03 07:13:19;;;;;;;25.67;16.37;;;4.20;99.90;;;;;;5006672;28;20214;-67
2022/12/03 07:15:45;;;;;;;28.80;17.17;;;4.10;99.90;;;;;;5003814;28;20504;-67
2022/12/03 07:18:10;;;;;;;27.37;19.00;;;4.00;99.90;;;;;;4989515;28;20188;-67
2022/12/03 07:20:36;;;;;;;26.37;17.33;;;4.00;99.90;;;;;;4994380;28;20795;-67
2022/12/03 07:23:01;;;;;;;28.67;18.50;;;4.00;99.90;;;;;;4999863;28;20176;-67
2022/12/03 07:25:27;;;;;;;29.03;17.97;;;4.00;99.90;;;;;;4995739;28;20286;-67
2022/12/03 07:27:53;;;;;;;26.07;18.17;;;4.10;99.90;;;;;;5000067;28;20182;-67
2022/12/03 07:30:19;;;;;;;26.17;17.93;;;4.10;99.90;;;;;;4989791;28;20884;-67
2022/12/03 07:32:45;;;;;;;23.00;17.00;;;4.10;99.90;;;;;;4987473;28;20249;-67
2022/12/03 07:35:10;;;;;;;26.80;18.77;;;4.20;99.90;;;;;;4991975;28;20210;-67
2022/12/03 07:37:36;;;;;;;27.17;19.13;;;4.20;99.90;;;;;;4991449;28;20187;-67
2022/12/03 07:40:03;;;;;;;26.87;18.43;;;4.20;99.90;;;;;;4991188;28;20219;-67
2022/12/03 07:42:28;;;;;;;31.97;21.73;;;4.20;99.90;;;;;;4984433;28;20180;-67
2022/12/03 07:44:54;;;;;;;28.00;20.60;;;4.30;99.90;;;;;;4990642;28;20849;-67
2022/12/03 07:47:19;;;;;;;29.60;19.83;;;4.30;99.90;;;;;;4984334;28;20233;-67
2022/12/03 07:49:45;;;;;;;31.57;20.80;;;4.40;99.90;;;;;;4992407;28;20237;-67
2022/12/03 07:52:10;;;;;;;28.37;19.57;;;4.40;99.90;;;;;;4990227;28;20192;-67
2022/12/03 07:54:36;;;;;;;35.20;22.93;;;4.40;99.90;;;;;;4989628;28;20203;-66
2022/12/03 07:57:01;;;;;;;35.67;22.00;;;4.30;99.90;;;;;;5001811;28;20194;-67
2022/12/03 07:59:27;;;;;;;31.80;23.07;;;4.30;99.90;;;;;;4993626;28;20210;-67
2022/12/03 08:01:52;;;;;;;34.37;21.60;;;4.40;99.90;;;;;;4996536;28;20203;-67
2022/12/03 08:04:20;;;;;;;28.63;19.50;;;4.30;99.90;;;;;;4993695;28;20205;-67
2022/12/03 08:06:46;;;;;;;28.40;18.77;;;4.20;99.90;;;;;;4998798;28;20191;-68
2022/12/03 08:09:12;;;;;;;32.37;20.33;;;4.30;99.90;;;;;;4996000;28;20438;-67
2022/12/03 08:11:38;;;;;;;29.03;17.90;;;4.20;99.90;;;;;;4995546;28;20500;-67
2022/12/03 08:14:10;;;;;;;30.50;18.83;;;4.20;99.90;;;;;;4996071;28;20569;-67
2022/12/03 08:16:39;;;;;;;29.53;20.57;;;4.30;99.90;;;;;;4985023;28;20454;-67
2022/12/03 08:19:10;;;;;;;28.17;19.47;;;4.30;99.90;;;;;;4993697;28;20442;-67
2022/12/03 08:21:36;;;;;;;29.87;19.80;;;4.40;99.90;;;;;;4994918;28;20470;-67
2022/12/03 08:24:15;;;;;;;26.97;18.50;;;4.30;99.90;;;;;;4994307;28;20454;-67
2022/12/03 08:26:43;;;;;;;35.90;19.27;;;4.20;99.90;;;;;;4990742;28;20873;-67
2022/12/03 08:29:10;;;;;;;26.57;16.63;;;4.20;99.90;;;;;;4991750;28;20925;-67
2022/12/03 08:31:36;;;;;;;30.80;19.90;;;4.00;99.90;;;;;;4994808;28;20443;-67
2022/12/03 08:34:25;;;;;;;33.70;19.90;;;4.10;99.90;;;;;;4993615;28;20462;-67
2022/12/03 08:36:58;;;;;;;28.10;19.37;;;3.90;99.90;;;;;;4991822;28;20526;-67
2022/12/03 08:39:42;;;;;;;33.90;19.53;;;4.00;99.90;;;;;;4986085;28;20448;-67
2022/12/03 08:42:43;;;;;;;30.17;20.03;;;4.00;99.90;;;;;;4991368;28;20462;-67
2022/12/03 08:45:38;;;;;;;31.33;18.20;;;4.10;99.90;;;;;;5003483;28;20505;-67
2022/12/03 08:48:19;;;;;;;33.93;19.67;;;4.10;99.90;;;;;;4991577;28;20442;-67
2022/12/03 08:50:45;;;;;;;29.00;18.47;;;4.00;99.90;;;;;;4987180;28;20493;-67
2022/12/03 08:53:28;;;;;;;37.53;20.10;;;4.00;99.90;;;;;;4996496;28;20486;-67
2022/12/03 08:55:59;;;;;;;29.30;18.37;;;4.00;99.90;;;;;;4990341;28;20199;-67
2022/12/03 08:58:43;;;;;;;31.27;18.83;;;4.00;99.90;;;;;;4995249;28;20491;-67
2022/12/03 09:01:11;;;;;;;32.50;18.90;;;4.00;99.90;;;;;;4996301;28;21164;-67
2022/12/03 09:03:39;;;;;;;28.70;18.50;;;4.00;99.90;;;;;;4992065;28;20446;-70
2022/12/03 09:06:05;;;;;;;27.03;14.87;;;4.00;99.90;;;;;;5004719;28;20439;-70
2022/12/03 09:08:31;;;;;;;26.40;17.40;;;4.10;99.90;;;;;;4986678;28;20449;-70
2022/12/03 09:10:56;;;;;;;29.40;20.40;;;4.00;99.90;;;;;;4997676;28;20434;-70
2022/12/03 09:13:22;;;;;;;33.23;18.93;;;4.00;99.90;;;;;;5002460;28;20560;-70
2022/12/03 09:15:48;;;;;;;31.70;19.03;;;4.00;99.90;;;;;;5004889;28;20210;-70
2022/12/03 09:18:13;;;;;;;36.07;20.43;;;4.00;99.90;;;;;;4998979;28;20648;-70
2022/12/03 09:20:39;;;;;;;30.20;17.40;;;3.90;99.90;;;;;;5004672;28;20214;-70
2022/12/03 09:23:06;;;;;;;33.27;19.70;;;3.80;99.90;;;;;;5002948;28;20189;-70
2022/12/03 09:25:31;;;;;;;37.57;19.07;;;3.70;99.90;;;;;;4994086;28;20542;-70
2022/12/03 09:27:57;;;;;;;32.53;19.63;;;3.70;99.90;;;;;;4985360;28;20606;-70
2022/12/03 09:30:22;;;;;;;34.27;20.10;;;3.60;99.90;;;;;;4993358;28;20281;-70
2022/12/03 09:32:48;;;;;;;39.10;21.20;;;3.60;99.90;;;;;;4997967;28;20202;-70
2022/12/03 09:35:13;;;;;;;37.00;20.70;;;3.60;99.90;;;;;;5004380;28;20208;-70
2022/12/03 09:37:39;;;;;;;40.70;22.00;;;3.50;99.90;;;;;;4994170;28;20187;-70
2022/12/03 09:40:05;;;;;;;34.80;19.87;;;3.50;99.90;;;;;;4992233;28;20233;-70
2022/12/03 09:42:31;;;;;;;36.40;21.57;;;3.50;99.90;;;;;;4977032;28;20188;-71
2022/12/03 09:44:57;;;;;;;36.40;21.67;;;3.60;99.90;;;;;;4994169;28;20831;-70
2022/12/03 09:47:22;;;;;;;38.40;20.63;;;3.60;99.90;;;;;;4989744;28;20183;-70
2022/12/03 09:49:48;;;;;;;42.90;21.47;;;3.70;99.90;;;;;;4994253;28;20548;-71
2022/12/03 09:52:24;;;;;;;32.70;19.10;;;3.80;99.90;;;;;;4994093;28;20183;-70
2022/12/03 09:54:50;;;;;;;33.90;20.17;;;3.80;99.90;;;;;;4994209;28;20261;-70
2022/12/03 09:57:16;;;;;;;27.80;18.80;;;3.80;99.90;;;;;;4988067;28;20428;-71
2022/12/03 09:59:42;;;;;;;33.47;19.57;;;3.80;99.90;;;;;;4988934;28;20186;-71
2022/12/03 10:02:27;;;;;;;35.97;20.87;;;3.80;99.90;;;;;;4988570;28;20471;-71
2022/12/03 10:04:52;;;;;;;31.80;18.03;;;3.80;99.90;;;;;;4991122;28;20223;-71
2022/12/03 10:07:19;;;;;;;32.60;19.07;;;3.80;99.90;;;;;;4989482;28;20470;-71
2022/12/03 10:09:44;;;;;;;33.53;19.33;;;3.80;99.90;;;;;;4990444;28;20214;-71
2022/12/03 10:12:11;;;;;;;21.90;15.20;;;3.80;99.90;;;;;;4991511;28;20434;-70
2022/12/03 10:14:37;;;;;;;34.70;19.27;;;3.70;99.90;;;;;;4992261;28;20218;-70
2022/12/03 10:17:03;;;;;;;31.60;18.73;;;3.60;99.90;;;;;;4993290;28;20446;-70
2022/12/03 10:19:31;;;;;;;30.37;16.00;;;3.50;99.90;;;;;;4990761;28;20253;-70
2022/12/03 10:21:57;;;;;;;25.20;16.03;;;3.50;99.90;;;;;;4992558;28;20470;-70
2022/12/03 10:24:28;;;;;;;25.83;15.23;;;3.40;99.90;;;;;;4980465;28;20969;-70
2022/12/03 10:26:56;;;;;;;27.23;17.00;;;3.40;99.90;;;;;;4988593;28;20183;-71
2022/12/03 10:29:24;;;;;;;26.43;17.50;;;3.40;99.90;;;;;;4986391;28;20446;-71
2022/12/03 10:31:56;;;;;;;29.37;17.80;;;3.50;99.90;;;;;;4978087;28;20444;-71
2022/12/03 10:34:29;;;;;;;28.83;17.83;;;3.40;99.90;;;;;;4982262;28;20479;-71
2022/12/03 10:37:16;;;;;;;33.43;19.03;;;3.30;99.90;;;;;;4989009;28;20829;-71
2022/12/03 10:39:57;;;;;;;30.07;17.20;;;3.40;99.90;;;;;;4988627;28;20825;-71
2022/12/03 10:42:41;;;;;;;24.83;15.30;;;3.50;99.90;;;;;;4989819;28;20451;-71
2022/12/03 10:45:21;;;;;;;26.63;16.77;;;3.50;99.90;;;;;;4991476;28;20537;-70
2022/12/03 10:48:20;;;;;;;29.80;19.10;;;3.50;99.90;;;;;;4990137;28;20478;-70
2022/12/03 10:50:55;;;;;;;29.07;18.97;;;3.50;99.90;;;;;;4992966;28;20474;-70
2022/12/03 10:53:25;;;;;;;27.73;17.60;;;3.40;99.90;;;;;;4978443;28;20442;-71
2022/12/03 10:55:57;;;;;;;23.07;16.13;;;3.40;99.90;;;;;;4986144;28;20480;-71
2022/12/03 10:58:25;;;;;;;29.43;17.17;;;3.50;99.90;;;;;;4987627;28;20443;-70
2022/12/03 11:00:55;;;;;;;32.20;18.30;;;3.50;99.90;;;;;;4991665;28;20465;-70
2022/12/03 11:03:29;;;;;;;28.67;17.30;;;3.50;99.90;;;;;;4992475;28;20477;-70
2022/12/03 11:05:56;;;;;;;30.77;17.67;;;3.50;99.90;;;;;;4992011;28;20521;-70
2022/12/03 11:08:24;;;;;;;29.93;17.80;;;3.50;99.90;;;;;;4991278;28;20942;-70
2022/12/03 11:11:19;;;;;;;32.47;17.90;;;3.60;99.90;;;;;;4991752;28;21072;-70
2022/12/03 11:13:53;;;;;;;29.50;18.00;;;3.60;99.90;;;;;;4986797;28;20913;-70
2022/12/03 11:16:40;;;;;;;31.20;17.60;;;3.60;99.90;;;;;;4985390;28;20493;-70
2022/12/03 11:19:11;;;;;;;26.03;16.30;;;3.60;99.90;;;;;;4988815;28;20884;-70
2022/12/03 11:22:02;;;;;;;28.10;16.97;;;3.60;99.90;;;;;;4986838;28;20481;-70
2022/12/03 11:24:28;;;;;;;25.57;17.40;;;3.60;99.90;;;;;;4984971;28;20466;-70
2022/12/03 11:26:54;;;;;;;31.33;19.67;;;3.60;99.90;;;;;;4990413;28;20430;-70
2022/12/03 11:29:45;;;;;;;27.07;15.67;;;3.70;99.90;;;;;;4991142;28;20434;-70
2022/12/03 11:32:36;;;;;;;27.40;16.23;;;3.80;99.90;;;;;;4988726;28;20188;-69
2022/12/03 11:35:12;;;;;;;28.13;16.53;;;3.80;99.90;;;;;;4990470;28;20454;-69
2022/12/03 11:37:37;;;;;;;25.87;15.93;;;3.60;99.90;;;;;;4986225;28;20959;-71
2022/12/03 11:40:27;;;;;;;27.07;14.20;;;3.50;99.90;;;;;;4983707;28;20449;-71
2022/12/03 11:42:52;;;;;;;24.33;15.80;;;3.40;99.90;;;;;;4985178;28;20180;-71
2022/12/03 11:45:36;;;;;;;23.03;14.50;;;3.40;99.90;;;;;;4988693;28;20454;-71
2022/12/03 11:48:13;;;;;;;27.07;14.97;;;3.40;99.90;;;;;;4987809;28;20168;-71
2022/12/03 11:50:52;;;;;;;32.37;15.57;;;3.40;99.90;;;;;;4986359;28;20423;-71
2022/12/03 11:53:30;;;;;;;25.60;14.93;;;3.40;99.90;;;;;;4989927;28;20426;-71
2022/12/03 11:56:12;;;;;;;22.33;14.50;;;3.50;99.90;;;;;;4985934;28;20440;-71
2022/12/03 11:58:41;;;;;;;20.80;13.70;;;3.40;99.90;;;;;;4987473;28;20427;-71
2022/12/03 12:01:10;;;;;;;22.23;14.67;;;3.40;99.90;;;;;;4986942;28;20473;-71
2022/12/03 12:03:47;;;;;;;21.73;13.83;;;3.40;99.90;;;;;;4989748;28;20441;-71
2022/12/03 12:06:18;;;;;;;22.73;13.60;;;3.40;99.90;;;;;;4988524;28;20439;-71
2022/12/03 12:08:50;;;;;;;26.00;15.80;;;3.40;99.90;;;;;;4986505;28;20430;-71
2022/12/03 12:11:29;;;;;;;22.13;14.33;;;3.40;99.90;;;;;;4987814;28;20435;-71
2022/12/03 12:14:07;;;;;;;29.60;15.73;;;3.40;99.90;;;;;;4987769;28;20473;-71
2022/12/03 12:16:49;;;;;;;28.90;15.80;;;3.40;99.90;;;;;;4985821;28;20434;-71
2022/12/03 12:19:41;;;;;;;24.70;16.00;;;3.30;99.90;;;;;;4989168;28;20534;-71
2022/12/03 12:22:23;;;;;;;21.10;14.20;;;3.40;99.90;;;;;;4987885;28;20513;-71
2022/12/03 12:24:52;;;;;;;24.23;15.67;;;3.30;99.90;;;;;;4987062;28;20463;-71
2022/12/03 12:27:44;;;;;;;20.23;14.13;;;3.40;99.90;;;;;;4982110;28;20781;-71
2022/12/03 12:30:16;;;;;;;27.20;16.10;;;3.20;99.90;;;;;;4988179;28;20778;-71
2022/12/03 12:32:46;;;;;;;25.27;15.53;;;3.40;99.90;;;;;;4989595;28;20939;-71
2022/12/03 12:35:25;;;;;;;20.57;13.87;;;3.50;99.90;;;;;;4989424;28;20461;-71
2022/12/03 12:37:56;;;;;;;21.70;14.53;;;3.50;99.90;;;;;;4987185;28;20430;-71
2022/12/03 12:40:25;;;;;;;23.87;13.73;;;3.40;99.90;;;;;;4986321;28;20437;-72
2022/12/03 12:42:56;;;;;;;22.43;14.60;;;3.30;99.90;;;;;;4989886;28;20442;-71
2022/12/03 12:45:25;;;;;;;23.53;13.97;;;3.30;99.90;;;;;;4985122;28;20486;-71
2022/12/03 12:48:20;;;;;;;26.23;13.43;;;3.20;99.90;;;;;;4990959;28;20920;-71
2022/12/03 12:50:49;;;;;;;22.37;13.90;;;3.30;99.90;;;;;;4983849;28;20438;-71
2022/12/03 12:53:17;;;;;;;27.33;14.70;;;3.30;99.90;;;;;;4990226;28;20449;-71
2022/12/03 12:55:43;;;;;;;24.73;13.77;;;3.30;99.90;;;;;;4991106;28;20461;-71
2022/12/03 12:58:15;;;;;;;21.27;13.90;;;3.20;99.90;;;;;;4985711;28;22356;-71
2022/12/03 13:00:41;;;;;;;25.30;13.90;;;3.40;99.90;;;;;;4991312;28;20199;-71